Munday, Texas
Current Conditions -  °F | °C
As of 6:16 PM on Wednesday 22 Oct 2014 (Local Time) from KF05 Reporting Station
Broken Clouds Broken Clouds  
Wind Chill: 64°   Ceiling: 12000
Heat Index: 64°   Visibility: 10mi
Dew Point: 57°   Wind: 0mph
Humidity: 77%   Direction: NA
Pressure: 30.1"   Gusts: NA
Location:  33.45°N, 99.62°W
Report Text: KF05 222316Z AUTO 00000KT 10SM SCT030 SCT036 BKN120 18/14 A3010 RMK AO2
Loading
Personal Weather Stations






























Interactive Weather Map
Tropical Storm Tracking
New forecast layout! Learn more

10-Day Weather Forecast

Advertisements
Track Severe Weather on mobile